<?xml version="1.0" encoding="UTF-8" ?>
<gpx version="1.1" xmlns:xsi="http://www.w3.org/2001/XMLSchema-instance"
    xmlns="http://www.topografix.com/GPX/1/1"
    xsi:schemaLocation="http://www.topografix.com/GPX/1/1 http://www.topografix.com/GPX/1/1/gpx.xsd"
    creator="Openrunner - https://www.openrunner.com" >	<trk>
	                   <name>cime Piagu-24844748</name>
						<trkseg>
					<trkpt lat="44.113730" lon="7.289670">
						<ele>1515</ele>
						<time>2026-08-31T08:15:47Z</time>
					</trkpt>
					<trkpt lat="44.113740" lon="7.289610">
						<ele>1514</ele>
						<time>2026-08-31T08:15:53Z</time>
					</trkpt>
					<trkpt lat="44.113720" lon="7.289520">
						<ele>1513</ele>
						<time>2026-08-31T08:16:02Z</time>
					</trkpt>
					<trkpt lat="44.113670" lon="7.289460">
						<ele>1512</ele>
						<time>2026-08-31T08:16:11Z</time>
					</trkpt>
					<trkpt lat="44.113590" lon="7.289540">
						<ele>1512</ele>
						<time>2026-08-31T08:16:24Z</time>
					</trkpt>
					<trkpt lat="44.113560" lon="7.289480">
						<ele>1511</ele>
						<time>2026-08-31T08:16:31Z</time>
					</trkpt>
					<trkpt lat="44.113430" lon="7.289330">
						<ele>1507</ele>
						<time>2026-08-31T08:16:53Z</time>
					</trkpt>
					<trkpt lat="44.113330" lon="7.289230">
						<ele>1504</ele>
						<time>2026-08-31T08:17:10Z</time>
					</trkpt>
					<trkpt lat="44.113250" lon="7.289080">
						<ele>1504</ele>
						<time>2026-08-31T08:17:28Z</time>
					</trkpt>
					<trkpt lat="44.113160" lon="7.288940">
						<ele>1505</ele>
						<time>2026-08-31T08:17:46Z</time>
					</trkpt>
					<trkpt lat="44.113110" lon="7.288800">
						<ele>1504</ele>
						<time>2026-08-31T08:18:01Z</time>
					</trkpt>
					<trkpt lat="44.112970" lon="7.288510">
						<ele>1504</ele>
						<time>2026-08-31T08:18:34Z</time>
					</trkpt>
					<trkpt lat="44.112910" lon="7.288350">
						<ele>1504</ele>
						<time>2026-08-31T08:18:52Z</time>
					</trkpt>
					<trkpt lat="44.112900" lon="7.288310">
						<ele>1504</ele>
						<time>2026-08-31T08:18:56Z</time>
					</trkpt>
					<trkpt lat="44.112790" lon="7.288380">
						<ele>1507</ele>
						<time>2026-08-31T08:19:12Z</time>
					</trkpt>
					<trkpt lat="44.112610" lon="7.288440">
						<ele>1513</ele>
						<time>2026-08-31T08:19:36Z</time>
					</trkpt>
					<trkpt lat="44.112550" lon="7.288400">
						<ele>1514</ele>
						<time>2026-08-31T08:19:45Z</time>
					</trkpt>
					<trkpt lat="44.112360" lon="7.287880">
						<ele>1522</ele>
						<time>2026-08-31T08:20:41Z</time>
					</trkpt>
					<trkpt lat="44.112250" lon="7.287520">
						<ele>1529</ele>
						<time>2026-08-31T08:21:19Z</time>
					</trkpt>
					<trkpt lat="44.112160" lon="7.287400">
						<ele>1534</ele>
						<time>2026-08-31T08:21:35Z</time>
					</trkpt>
					<trkpt lat="44.112100" lon="7.286980">
						<ele>1538</ele>
						<time>2026-08-31T08:22:16Z</time>
					</trkpt>
					<trkpt lat="44.111630" lon="7.286090">
						<ele>1563</ele>
						<time>2026-08-31T08:24:02Z</time>
					</trkpt>
					<trkpt lat="44.111390" lon="7.285260">
						<ele>1577</ele>
						<time>2026-08-31T08:25:28Z</time>
					</trkpt>
					<trkpt lat="44.111180" lon="7.285720">
						<ele>1592</ele>
						<time>2026-08-31T08:26:20Z</time>
					</trkpt>
					<trkpt lat="44.111010" lon="7.286230">
						<ele>1604</ele>
						<time>2026-08-31T08:27:14Z</time>
					</trkpt>
					<trkpt lat="44.110930" lon="7.286280">
						<ele>1609</ele>
						<time>2026-08-31T08:27:26Z</time>
					</trkpt>
					<trkpt lat="44.110880" lon="7.286460">
						<ele>1612</ele>
						<time>2026-08-31T08:27:44Z</time>
					</trkpt>
					<trkpt lat="44.110780" lon="7.286350">
						<ele>1619</ele>
						<time>2026-08-31T08:28:01Z</time>
					</trkpt>
					<trkpt lat="44.110750" lon="7.286800">
						<ele>1621</ele>
						<time>2026-08-31T08:28:45Z</time>
					</trkpt>
					<trkpt lat="44.110710" lon="7.286940">
						<ele>1624</ele>
						<time>2026-08-31T08:28:59Z</time>
					</trkpt>
					<trkpt lat="44.110710" lon="7.286940">
						<ele>1624</ele>
						<time>2026-08-31T08:28:59Z</time>
					</trkpt>
					<trkpt lat="44.110670" lon="7.287080">
						<ele>1627</ele>
						<time>2026-08-31T08:29:13Z</time>
					</trkpt>
					<trkpt lat="44.110530" lon="7.287370">
						<ele>1637</ele>
						<time>2026-08-31T08:29:47Z</time>
					</trkpt>
					<trkpt lat="44.110480" lon="7.287490">
						<ele>1641</ele>
						<time>2026-08-31T08:30:00Z</time>
					</trkpt>
					<trkpt lat="44.110400" lon="7.287470">
						<ele>1646</ele>
						<time>2026-08-31T08:30:11Z</time>
					</trkpt>
					<trkpt lat="44.110340" lon="7.287510">
						<ele>1650</ele>
						<time>2026-08-31T08:30:20Z</time>
					</trkpt>
					<trkpt lat="44.110270" lon="7.287430">
						<ele>1655</ele>
						<time>2026-08-31T08:30:32Z</time>
					</trkpt>
					<trkpt lat="44.110180" lon="7.287080">
						<ele>1662</ele>
						<time>2026-08-31T08:31:08Z</time>
					</trkpt>
					<trkpt lat="44.110180" lon="7.287080">
						<ele>1662</ele>
						<time>2026-08-31T08:31:08Z</time>
					</trkpt>
					<trkpt lat="44.109960" lon="7.286250">
						<ele>1681</ele>
						<time>2026-08-31T08:32:32Z</time>
					</trkpt>
					<trkpt lat="44.109830" lon="7.286140">
						<ele>1692</ele>
						<time>2026-08-31T08:32:53Z</time>
					</trkpt>
					<trkpt lat="44.109780" lon="7.285950">
						<ele>1696</ele>
						<time>2026-08-31T08:33:12Z</time>
					</trkpt>
					<trkpt lat="44.109810" lon="7.285880">
						<ele>1694</ele>
						<time>2026-08-31T08:33:20Z</time>
					</trkpt>
					<trkpt lat="44.109680" lon="7.285600">
						<ele>1708</ele>
						<time>2026-08-31T08:33:52Z</time>
					</trkpt>
					<trkpt lat="44.109740" lon="7.285430">
						<ele>1705</ele>
						<time>2026-08-31T08:34:10Z</time>
					</trkpt>
					<trkpt lat="44.109620" lon="7.285520">
						<ele>1714</ele>
						<time>2026-08-31T08:34:28Z</time>
					</trkpt>
					<trkpt lat="44.109520" lon="7.285020">
						<ele>1730</ele>
						<time>2026-08-31T08:35:18Z</time>
					</trkpt>
					<trkpt lat="44.109450" lon="7.284710">
						<ele>1740</ele>
						<time>2026-08-31T08:35:49Z</time>
					</trkpt>
					<trkpt lat="44.109660" lon="7.284440">
						<ele>1725</ele>
						<time>2026-08-31T08:36:27Z</time>
					</trkpt>
					<trkpt lat="44.109670" lon="7.284100">
						<ele>1727</ele>
						<time>2026-08-31T08:37:00Z</time>
					</trkpt>
					<trkpt lat="44.109110" lon="7.284180">
						<ele>1772</ele>
						<time>2026-08-31T08:38:15Z</time>
					</trkpt>
					<trkpt lat="44.109080" lon="7.284020">
						<ele>1770</ele>
						<time>2026-08-31T08:38:31Z</time>
					</trkpt>
					<trkpt lat="44.108950" lon="7.284140">
						<ele>1778</ele>
						<time>2026-08-31T08:38:52Z</time>
					</trkpt>
					<trkpt lat="44.108620" lon="7.283840">
						<ele>1782</ele>
						<time>2026-08-31T08:39:44Z</time>
					</trkpt>
					<trkpt lat="44.108430" lon="7.283710">
						<ele>1784</ele>
						<time>2026-08-31T08:40:12Z</time>
					</trkpt>
					<trkpt lat="44.108110" lon="7.283830">
						<ele>1787</ele>
						<time>2026-08-31T08:40:57Z</time>
					</trkpt>
					<trkpt lat="44.107820" lon="7.283820">
						<ele>1780</ele>
						<time>2026-08-31T08:41:35Z</time>
					</trkpt>
					<trkpt lat="44.107390" lon="7.283890">
						<ele>1777</ele>
						<time>2026-08-31T08:42:33Z</time>
					</trkpt>
					<trkpt lat="44.107300" lon="7.283870">
						<ele>1775</ele>
						<time>2026-08-31T08:42:45Z</time>
					</trkpt>
					<trkpt lat="44.107260" lon="7.283990">
						<ele>1782</ele>
						<time>2026-08-31T08:42:58Z</time>
					</trkpt>
					<trkpt lat="44.106920" lon="7.284110">
						<ele>1784</ele>
						<time>2026-08-31T08:43:45Z</time>
					</trkpt>
					<trkpt lat="44.106700" lon="7.284130">
						<ele>1782</ele>
						<time>2026-08-31T08:44:14Z</time>
					</trkpt>
					<trkpt lat="44.106630" lon="7.284100">
						<ele>1782</ele>
						<time>2026-08-31T08:44:24Z</time>
					</trkpt>
					<trkpt lat="44.105960" lon="7.283200">
						<ele>1779</ele>
						<time>2026-08-31T08:46:28Z</time>
					</trkpt>
					<trkpt lat="44.105840" lon="7.283130">
						<ele>1783</ele>
						<time>2026-08-31T08:46:46Z</time>
					</trkpt>
					<trkpt lat="44.105710" lon="7.283150">
						<ele>1791</ele>
						<time>2026-08-31T08:47:03Z</time>
					</trkpt>
					<trkpt lat="44.105570" lon="7.283050">
						<ele>1800</ele>
						<time>2026-08-31T08:47:24Z</time>
					</trkpt>
					<trkpt lat="44.105500" lon="7.282900">
						<ele>1805</ele>
						<time>2026-08-31T08:47:41Z</time>
					</trkpt>
					<trkpt lat="44.105410" lon="7.282780">
						<ele>1812</ele>
						<time>2026-08-31T08:47:58Z</time>
					</trkpt>
					<trkpt lat="44.105390" lon="7.282610">
						<ele>1814</ele>
						<time>2026-08-31T08:48:14Z</time>
					</trkpt>
					<trkpt lat="44.105490" lon="7.282380">
						<ele>1808</ele>
						<time>2026-08-31T08:48:40Z</time>
					</trkpt>
					<trkpt lat="44.105650" lon="7.282310">
						<ele>1797</ele>
						<time>2026-08-31T08:49:02Z</time>
					</trkpt>
					<trkpt lat="44.105700" lon="7.282100">
						<ele>1795</ele>
						<time>2026-08-31T08:49:24Z</time>
					</trkpt>
					<trkpt lat="44.105730" lon="7.281500">
						<ele>1798</ele>
						<time>2026-08-31T08:50:21Z</time>
					</trkpt>
					<trkpt lat="44.105580" lon="7.280780">
						<ele>1805</ele>
						<time>2026-08-31T08:51:33Z</time>
					</trkpt>
					<trkpt lat="44.105360" lon="7.280630">
						<ele>1809</ele>
						<time>2026-08-31T08:52:06Z</time>
					</trkpt>
					<trkpt lat="44.104850" lon="7.280650">
						<ele>1829</ele>
						<time>2026-08-31T08:53:14Z</time>
					</trkpt>
					<trkpt lat="44.104510" lon="7.280520">
						<ele>1828</ele>
						<time>2026-08-31T08:54:01Z</time>
					</trkpt>
					<trkpt lat="44.104280" lon="7.280540">
						<ele>1834</ele>
						<time>2026-08-31T08:54:32Z</time>
					</trkpt>
					<trkpt lat="44.104200" lon="7.280470">
						<ele>1831</ele>
						<time>2026-08-31T08:54:44Z</time>
					</trkpt>
					<trkpt lat="44.104030" lon="7.280390">
						<ele>1828</ele>
						<time>2026-08-31T08:55:08Z</time>
					</trkpt>
					<trkpt lat="44.104000" lon="7.280320">
						<ele>1824</ele>
						<time>2026-08-31T08:55:16Z</time>
					</trkpt>
					<trkpt lat="44.103970" lon="7.280310">
						<ele>1824</ele>
						<time>2026-08-31T08:55:20Z</time>
					</trkpt>
					<trkpt lat="44.103830" lon="7.280010">
						<ele>1806</ele>
						<time>2026-08-31T08:55:54Z</time>
					</trkpt>
					<trkpt lat="44.103680" lon="7.280030">
						<ele>1810</ele>
						<time>2026-08-31T08:56:14Z</time>
					</trkpt>
					<trkpt lat="44.103470" lon="7.279970">
						<ele>1810</ele>
						<time>2026-08-31T08:56:43Z</time>
					</trkpt>
					<trkpt lat="44.103160" lon="7.279660">
						<ele>1800</ele>
						<time>2026-08-31T08:57:34Z</time>
					</trkpt>
					<trkpt lat="44.103050" lon="7.279460">
						<ele>1794</ele>
						<time>2026-08-31T08:57:58Z</time>
					</trkpt>
					<trkpt lat="44.103040" lon="7.279300">
						<ele>1788</ele>
						<time>2026-08-31T08:58:14Z</time>
					</trkpt>
					<trkpt lat="44.102930" lon="7.278820">
						<ele>1784</ele>
						<time>2026-08-31T08:59:02Z</time>
					</trkpt>
					<trkpt lat="44.103050" lon="7.278880">
						<ele>1778</ele>
						<time>2026-08-31T08:59:19Z</time>
					</trkpt>
					<trkpt lat="44.103070" lon="7.278870">
						<ele>1777</ele>
						<time>2026-08-31T08:59:22Z</time>
					</trkpt>
					<trkpt lat="44.103040" lon="7.278820">
						<ele>1778</ele>
						<time>2026-08-31T08:59:28Z</time>
					</trkpt>
					<trkpt lat="44.103030" lon="7.278760">
						<ele>1778</ele>
						<time>2026-08-31T08:59:34Z</time>
					</trkpt>
					<trkpt lat="44.103150" lon="7.278820">
						<ele>1772</ele>
						<time>2026-08-31T08:59:51Z</time>
					</trkpt>
					<trkpt lat="44.103120" lon="7.278660">
						<ele>1771</ele>
						<time>2026-08-31T09:00:07Z</time>
					</trkpt>
					<trkpt lat="44.103140" lon="7.278530">
						<ele>1768</ele>
						<time>2026-08-31T09:00:19Z</time>
					</trkpt>
					<trkpt lat="44.103090" lon="7.278250">
						<ele>1769</ele>
						<time>2026-08-31T09:00:47Z</time>
					</trkpt>
					<trkpt lat="44.103250" lon="7.277990">
						<ele>1759</ele>
						<time>2026-08-31T09:01:20Z</time>
					</trkpt>
					<trkpt lat="44.103280" lon="7.277130">
						<ele>1749</ele>
						<time>2026-08-31T09:02:42Z</time>
					</trkpt>
					<trkpt lat="44.103180" lon="7.276870">
						<ele>1747</ele>
						<time>2026-08-31T09:03:11Z</time>
					</trkpt>
					<trkpt lat="44.102770" lon="7.276860">
						<ele>1766</ele>
						<time>2026-08-31T09:04:05Z</time>
					</trkpt>
					<trkpt lat="44.102250" lon="7.276460">
						<ele>1775</ele>
						<time>2026-08-31T09:05:25Z</time>
					</trkpt>
					<trkpt lat="44.101680" lon="7.275630">
						<ele>1766</ele>
						<time>2026-08-31T09:07:15Z</time>
					</trkpt>
					<trkpt lat="44.101260" lon="7.275230">
						<ele>1769</ele>
						<time>2026-08-31T09:08:23Z</time>
					</trkpt>
					<trkpt lat="44.101090" lon="7.275140">
						<ele>1773</ele>
						<time>2026-08-31T09:08:47Z</time>
					</trkpt>
					<trkpt lat="44.100590" lon="7.274170">
						<ele>1759</ele>
						<time>2026-08-31T09:10:41Z</time>
					</trkpt>
					<trkpt lat="44.100410" lon="7.274170">
						<ele>1768</ele>
						<time>2026-08-31T09:11:05Z</time>
					</trkpt>
					<trkpt lat="44.100240" lon="7.273970">
						<ele>1772</ele>
						<time>2026-08-31T09:11:35Z</time>
					</trkpt>
					<trkpt lat="44.100240" lon="7.273800">
						<ele>1768</ele>
						<time>2026-08-31T09:11:51Z</time>
					</trkpt>
					<trkpt lat="44.100060" lon="7.273160">
						<ele>1762</ele>
						<time>2026-08-31T09:12:57Z</time>
					</trkpt>
					<trkpt lat="44.099990" lon="7.272710">
						<ele>1755</ele>
						<time>2026-08-31T09:13:41Z</time>
					</trkpt>
					<trkpt lat="44.099770" lon="7.272630">
						<ele>1763</ele>
						<time>2026-08-31T09:14:12Z</time>
					</trkpt>
					<trkpt lat="44.099520" lon="7.272650">
						<ele>1774</ele>
						<time>2026-08-31T09:14:45Z</time>
					</trkpt>
					<trkpt lat="44.099460" lon="7.272500">
						<ele>1773</ele>
						<time>2026-08-31T09:15:02Z</time>
					</trkpt>
					<trkpt lat="44.099550" lon="7.272480">
						<ele>1768</ele>
						<time>2026-08-31T09:15:14Z</time>
					</trkpt>
					<trkpt lat="44.099520" lon="7.272220">
						<ele>1761</ele>
						<time>2026-08-31T09:15:39Z</time>
					</trkpt>
					<trkpt lat="44.099710" lon="7.272140">
						<ele>1749</ele>
						<time>2026-08-31T09:16:05Z</time>
					</trkpt>
					<trkpt lat="44.099670" lon="7.271940">
						<ele>1743</ele>
						<time>2026-08-31T09:16:25Z</time>
					</trkpt>
					<trkpt lat="44.099790" lon="7.271900">
						<ele>1736</ele>
						<time>2026-08-31T09:16:42Z</time>
					</trkpt>
					<trkpt lat="44.099430" lon="7.271420">
						<ele>1740</ele>
						<time>2026-08-31T09:17:48Z</time>
					</trkpt>
					<trkpt lat="44.099320" lon="7.271180">
						<ele>1742</ele>
						<time>2026-08-31T09:18:16Z</time>
					</trkpt>
					<trkpt lat="44.099210" lon="7.270810">
						<ele>1743</ele>
						<time>2026-08-31T09:18:54Z</time>
					</trkpt>
					<trkpt lat="44.099110" lon="7.270540">
						<ele>1745</ele>
						<time>2026-08-31T09:19:23Z</time>
					</trkpt>
					<trkpt lat="44.099010" lon="7.270220">
						<ele>1744</ele>
						<time>2026-08-31T09:19:57Z</time>
					</trkpt>
					<trkpt lat="44.098720" lon="7.269900">
						<ele>1748</ele>
						<time>2026-08-31T09:20:46Z</time>
					</trkpt>
					<trkpt lat="44.098520" lon="7.269970">
						<ele>1759</ele>
						<time>2026-08-31T09:21:13Z</time>
					</trkpt>
					<trkpt lat="44.098190" lon="7.270010">
						<ele>1773</ele>
						<time>2026-08-31T09:21:58Z</time>
					</trkpt>
					<trkpt lat="44.097900" lon="7.269880">
						<ele>1774</ele>
						<time>2026-08-31T09:22:38Z</time>
					</trkpt>
					<trkpt lat="44.097630" lon="7.269720">
						<ele>1775</ele>
						<time>2026-08-31T09:23:17Z</time>
					</trkpt>
					<trkpt lat="44.097340" lon="7.269090">
						<ele>1769</ele>
						<time>2026-08-31T09:24:29Z</time>
					</trkpt>
					<trkpt lat="44.097020" lon="7.268680">
						<ele>1768</ele>
						<time>2026-08-31T09:25:27Z</time>
					</trkpt>
					<trkpt lat="44.096850" lon="7.268210">
						<ele>1755</ele>
						<time>2026-08-31T09:26:18Z</time>
					</trkpt>
					<trkpt lat="44.096540" lon="7.268060">
						<ele>1757</ele>
						<time>2026-08-31T09:27:01Z</time>
					</trkpt>
					<trkpt lat="44.095770" lon="7.268420">
						<ele>1778</ele>
						<time>2026-08-31T09:28:50Z</time>
					</trkpt>
					<trkpt lat="44.094980" lon="7.268090">
						<ele>1763</ele>
						<time>2026-08-31T09:30:40Z</time>
					</trkpt>
					<trkpt lat="44.094630" lon="7.268180">
						<ele>1772</ele>
						<time>2026-08-31T09:31:27Z</time>
					</trkpt>
					<trkpt lat="44.094100" lon="7.267920">
						<ele>1766</ele>
						<time>2026-08-31T09:32:42Z</time>
					</trkpt>
					<trkpt lat="44.093650" lon="7.268290">
						<ele>1790</ele>
						<time>2026-08-31T09:33:52Z</time>
					</trkpt>
					<trkpt lat="44.092910" lon="7.268030">
						<ele>1779</ele>
						<time>2026-08-31T09:35:34Z</time>
					</trkpt>
					<trkpt lat="44.092650" lon="7.268150">
						<ele>1787</ele>
						<time>2026-08-31T09:36:10Z</time>
					</trkpt>
					<trkpt lat="44.092120" lon="7.267990">
						<ele>1779</ele>
						<time>2026-08-31T09:37:23Z</time>
					</trkpt>
					<trkpt lat="44.091230" lon="7.268050">
						<ele>1787</ele>
						<time>2026-08-31T09:39:22Z</time>
					</trkpt>
					<trkpt lat="44.091010" lon="7.267880">
						<ele>1776</ele>
						<time>2026-08-31T09:39:55Z</time>
					</trkpt>
					<trkpt lat="44.090610" lon="7.267880">
						<ele>1782</ele>
						<time>2026-08-31T09:40:49Z</time>
					</trkpt>
					<trkpt lat="44.090120" lon="7.267190">
						<ele>1759</ele>
						<time>2026-08-31T09:42:22Z</time>
					</trkpt>
					<trkpt lat="44.089690" lon="7.266920">
						<ele>1752</ele>
						<time>2026-08-31T09:43:25Z</time>
					</trkpt>
					<trkpt lat="44.089510" lon="7.266920">
						<ele>1753</ele>
						<time>2026-08-31T09:43:49Z</time>
					</trkpt>
					<trkpt lat="44.089380" lon="7.266920">
						<ele>1753</ele>
						<time>2026-08-31T09:44:06Z</time>
					</trkpt>
					<trkpt lat="44.087930" lon="7.266610">
						<ele>1725</ele>
						<time>2026-08-31T09:47:22Z</time>
					</trkpt>
					<trkpt lat="44.087840" lon="7.266620">
						<ele>1725</ele>
						<time>2026-08-31T09:47:34Z</time>
					</trkpt>
					<trkpt lat="44.087750" lon="7.266820">
						<ele>1726</ele>
						<time>2026-08-31T09:47:56Z</time>
					</trkpt>
					<trkpt lat="44.087750" lon="7.266980">
						<ele>1726</ele>
						<time>2026-08-31T09:48:12Z</time>
					</trkpt>
					<trkpt lat="44.087810" lon="7.267200">
						<ele>1728</ele>
						<time>2026-08-31T09:48:34Z</time>
					</trkpt>
					<trkpt lat="44.088030" lon="7.267200">
						<ele>1737</ele>
						<time>2026-08-31T09:49:04Z</time>
					</trkpt>
					<trkpt lat="44.088310" lon="7.267370">
						<ele>1753</ele>
						<time>2026-08-31T09:49:44Z</time>
					</trkpt>
					<trkpt lat="44.088360" lon="7.267340">
						<ele>1754</ele>
						<time>2026-08-31T09:49:52Z</time>
					</trkpt>
					<trkpt lat="44.088470" lon="7.267650">
						<ele>1764</ele>
						<time>2026-08-31T09:50:25Z</time>
					</trkpt>
					<trkpt lat="44.088570" lon="7.267570">
						<ele>1768</ele>
						<time>2026-08-31T09:50:40Z</time>
					</trkpt>
					<trkpt lat="44.088660" lon="7.267730">
						<ele>1774</ele>
						<time>2026-08-31T09:51:00Z</time>
					</trkpt>
					<trkpt lat="44.088620" lon="7.268160">
						<ele>1776</ele>
						<time>2026-08-31T09:51:41Z</time>
					</trkpt>
					<trkpt lat="44.088790" lon="7.268060">
						<ele>1785</ele>
						<time>2026-08-31T09:52:06Z</time>
					</trkpt>
					<trkpt lat="44.088810" lon="7.268190">
						<ele>1789</ele>
						<time>2026-08-31T09:52:19Z</time>
					</trkpt>
					<trkpt lat="44.088890" lon="7.268190">
						<ele>1794</ele>
						<time>2026-08-31T09:52:29Z</time>
					</trkpt>
					<trkpt lat="44.088960" lon="7.268090">
						<ele>1797</ele>
						<time>2026-08-31T09:52:43Z</time>
					</trkpt>
					<trkpt lat="44.089020" lon="7.268150">
						<ele>1802</ele>
						<time>2026-08-31T09:52:53Z</time>
					</trkpt>
					<trkpt lat="44.089390" lon="7.268410">
						<ele>1820</ele>
						<time>2026-08-31T09:53:48Z</time>
					</trkpt>
					<trkpt lat="44.089360" lon="7.268560">
						<ele>1824</ele>
						<time>2026-08-31T09:54:03Z</time>
					</trkpt>
					<trkpt lat="44.089510" lon="7.268670">
						<ele>1830</ele>
						<time>2026-08-31T09:54:25Z</time>
					</trkpt>
					<trkpt lat="44.089470" lon="7.268820">
						<ele>1834</ele>
						<time>2026-08-31T09:54:41Z</time>
					</trkpt>
					<trkpt lat="44.089610" lon="7.268890">
						<ele>1842</ele>
						<time>2026-08-31T09:55:01Z</time>
					</trkpt>
					<trkpt lat="44.089570" lon="7.269000">
						<ele>1845</ele>
						<time>2026-08-31T09:55:12Z</time>
					</trkpt>
					<trkpt lat="44.089560" lon="7.269200">
						<ele>1852</ele>
						<time>2026-08-31T09:55:32Z</time>
					</trkpt>
					<trkpt lat="44.089580" lon="7.269370">
						<ele>1858</ele>
						<time>2026-08-31T09:55:48Z</time>
					</trkpt>
					<trkpt lat="44.089640" lon="7.269320">
						<ele>1860</ele>
						<time>2026-08-31T09:55:58Z</time>
					</trkpt>
					<trkpt lat="44.089700" lon="7.269350">
						<ele>1864</ele>
						<time>2026-08-31T09:56:06Z</time>
					</trkpt>
					<trkpt lat="44.089500" lon="7.269940">
						<ele>1872</ele>
						<time>2026-08-31T09:57:09Z</time>
					</trkpt>
					<trkpt lat="44.089550" lon="7.270070">
						<ele>1877</ele>
						<time>2026-08-31T09:57:23Z</time>
					</trkpt>
					<trkpt lat="44.089740" lon="7.269840">
						<ele>1882</ele>
						<time>2026-08-31T09:57:56Z</time>
					</trkpt>
					<trkpt lat="44.089960" lon="7.269980">
						<ele>1899</ele>
						<time>2026-08-31T09:58:29Z</time>
					</trkpt>
					<trkpt lat="44.090300" lon="7.270110">
						<ele>1909</ele>
						<time>2026-08-31T09:59:16Z</time>
					</trkpt>
					<trkpt lat="44.090470" lon="7.270360">
						<ele>1916</ele>
						<time>2026-08-31T09:59:49Z</time>
					</trkpt>
					<trkpt lat="44.091200" lon="7.270880">
						<ele>1953</ele>
						<time>2026-08-31T10:01:38Z</time>
					</trkpt>
					<trkpt lat="44.090920" lon="7.271160">
						<ele>1948</ele>
						<time>2026-08-31T10:02:24Z</time>
					</trkpt>
					<trkpt lat="44.091280" lon="7.271340">
						<ele>1966</ele>
						<time>2026-08-31T10:03:15Z</time>
					</trkpt>
					<trkpt lat="44.091250" lon="7.271470">
						<ele>1967</ele>
						<time>2026-08-31T10:03:28Z</time>
					</trkpt>
					<trkpt lat="44.091510" lon="7.271500">
						<ele>1980</ele>
						<time>2026-08-31T10:04:03Z</time>
					</trkpt>
					<trkpt lat="44.091480" lon="7.271670">
						<ele>1983</ele>
						<time>2026-08-31T10:04:20Z</time>
					</trkpt>
					<trkpt lat="44.091600" lon="7.271710">
						<ele>1989</ele>
						<time>2026-08-31T10:04:36Z</time>
					</trkpt>
					<trkpt lat="44.091670" lon="7.271930">
						<ele>1992</ele>
						<time>2026-08-31T10:04:59Z</time>
					</trkpt>
					<trkpt lat="44.092060" lon="7.272270">
						<ele>2001</ele>
						<time>2026-08-31T10:06:01Z</time>
					</trkpt>
					<trkpt lat="44.092720" lon="7.273070">
						<ele>2025</ele>
						<time>2026-08-31T10:07:57Z</time>
					</trkpt>
					<trkpt lat="44.093130" lon="7.273400">
						<ele>2044</ele>
						<time>2026-08-31T10:09:01Z</time>
					</trkpt>
					<trkpt lat="44.093270" lon="7.273720">
						<ele>2052</ele>
						<time>2026-08-31T10:09:37Z</time>
					</trkpt>
					<trkpt lat="44.093330" lon="7.273980">
						<ele>2058</ele>
						<time>2026-08-31T10:10:03Z</time>
					</trkpt>
					<trkpt lat="44.093430" lon="7.274060">
						<ele>2062</ele>
						<time>2026-08-31T10:10:18Z</time>
					</trkpt>
					<trkpt lat="44.093440" lon="7.273980">
						<ele>2060</ele>
						<time>2026-08-31T10:10:26Z</time>
					</trkpt>
					<trkpt lat="44.093670" lon="7.274240">
						<ele>2070</ele>
						<time>2026-08-31T10:11:05Z</time>
					</trkpt>
					<trkpt lat="44.093710" lon="7.274340">
						<ele>2073</ele>
						<time>2026-08-31T10:11:16Z</time>
					</trkpt>
					<trkpt lat="44.093730" lon="7.274510">
						<ele>2076</ele>
						<time>2026-08-31T10:11:33Z</time>
					</trkpt>
					<trkpt lat="44.094050" lon="7.274960">
						<ele>2098</ele>
						<time>2026-08-31T10:12:34Z</time>
					</trkpt>
					<trkpt lat="44.094180" lon="7.275310">
						<ele>2109</ele>
						<time>2026-08-31T10:13:11Z</time>
					</trkpt>
					<trkpt lat="44.094210" lon="7.275400">
						<ele>2110</ele>
						<time>2026-08-31T10:13:21Z</time>
					</trkpt>
					<trkpt lat="44.094520" lon="7.275460">
						<ele>2116</ele>
						<time>2026-08-31T10:14:03Z</time>
					</trkpt>
					<trkpt lat="44.094570" lon="7.275840">
						<ele>2124</ele>
						<time>2026-08-31T10:14:40Z</time>
					</trkpt>
					<trkpt lat="44.094660" lon="7.276010">
						<ele>2128</ele>
						<time>2026-08-31T10:15:00Z</time>
					</trkpt>
					<trkpt lat="44.094690" lon="7.276190">
						<ele>2130</ele>
						<time>2026-08-31T10:15:18Z</time>
					</trkpt>
					<trkpt lat="44.094670" lon="7.276440">
						<ele>2133</ele>
						<time>2026-08-31T10:15:42Z</time>
					</trkpt>
					<trkpt lat="44.094710" lon="7.276570">
						<ele>2135</ele>
						<time>2026-08-31T10:15:55Z</time>
					</trkpt>
					<trkpt lat="44.094730" lon="7.276760">
						<ele>2137</ele>
						<time>2026-08-31T10:16:14Z</time>
					</trkpt>
					<trkpt lat="44.094730" lon="7.276900">
						<ele>2139</ele>
						<time>2026-08-31T10:16:27Z</time>
					</trkpt>
					<trkpt lat="44.094690" lon="7.277080">
						<ele>2140</ele>
						<time>2026-08-31T10:16:45Z</time>
					</trkpt>
					<trkpt lat="44.094740" lon="7.277370">
						<ele>2144</ele>
						<time>2026-08-31T10:17:14Z</time>
					</trkpt>
					<trkpt lat="44.094760" lon="7.277660">
						<ele>2147</ele>
						<time>2026-08-31T10:17:42Z</time>
					</trkpt>
					<trkpt lat="44.094820" lon="7.277960">
						<ele>2150</ele>
						<time>2026-08-31T10:18:12Z</time>
					</trkpt>
					<trkpt lat="44.094960" lon="7.278190">
						<ele>2155</ele>
						<time>2026-08-31T10:18:40Z</time>
					</trkpt>
					<trkpt lat="44.095100" lon="7.278370">
						<ele>2157</ele>
						<time>2026-08-31T10:19:06Z</time>
					</trkpt>
					<trkpt lat="44.095290" lon="7.278700">
						<ele>2159</ele>
						<time>2026-08-31T10:19:46Z</time>
					</trkpt>
					<trkpt lat="44.095330" lon="7.278840">
						<ele>2160</ele>
						<time>2026-08-31T10:20:01Z</time>
					</trkpt>
					<trkpt lat="44.095520" lon="7.279170">
						<ele>2166</ele>
						<time>2026-08-31T10:20:41Z</time>
					</trkpt>
					<trkpt lat="44.095660" lon="7.279500">
						<ele>2169</ele>
						<time>2026-08-31T10:21:18Z</time>
					</trkpt>
					<trkpt lat="44.095930" lon="7.279970">
						<ele>2177</ele>
						<time>2026-08-31T10:22:16Z</time>
					</trkpt>
					<trkpt lat="44.096010" lon="7.280200">
						<ele>2176</ele>
						<time>2026-08-31T10:22:40Z</time>
					</trkpt>
					<trkpt lat="44.096130" lon="7.280430">
						<ele>2176</ele>
						<time>2026-08-31T10:23:08Z</time>
					</trkpt>
					<trkpt lat="44.096210" lon="7.280700">
						<ele>2176</ele>
						<time>2026-08-31T10:23:36Z</time>
					</trkpt>
					<trkpt lat="44.096490" lon="7.280940">
						<ele>2182</ele>
						<time>2026-08-31T10:24:19Z</time>
					</trkpt>
					<trkpt lat="44.096610" lon="7.281060">
						<ele>2185</ele>
						<time>2026-08-31T10:24:39Z</time>
					</trkpt>
					<trkpt lat="44.096770" lon="7.281650">
						<ele>2186</ele>
						<time>2026-08-31T10:25:40Z</time>
					</trkpt>
					<trkpt lat="44.096810" lon="7.281890">
						<ele>2188</ele>
						<time>2026-08-31T10:26:03Z</time>
					</trkpt>
					<trkpt lat="44.096710" lon="7.282290">
						<ele>2195</ele>
						<time>2026-08-31T10:26:44Z</time>
					</trkpt>
					<trkpt lat="44.096750" lon="7.282860">
						<ele>2203</ele>
						<time>2026-08-31T10:27:39Z</time>
					</trkpt>
					<trkpt lat="44.097100" lon="7.283680">
						<ele>2216</ele>
						<time>2026-08-31T10:29:10Z</time>
					</trkpt>
					<trkpt lat="44.097470" lon="7.284130">
						<ele>2234</ele>
						<time>2026-08-31T10:30:16Z</time>
					</trkpt>
					<trkpt lat="44.097520" lon="7.284260">
						<ele>2236</ele>
						<time>2026-08-31T10:30:30Z</time>
					</trkpt>
					<trkpt lat="44.097820" lon="7.284660">
						<ele>2235</ele>
						<time>2026-08-31T10:31:25Z</time>
					</trkpt>
					<trkpt lat="44.097920" lon="7.284860">
						<ele>2240</ele>
						<time>2026-08-31T10:31:49Z</time>
					</trkpt>
					<trkpt lat="44.097930" lon="7.285130">
						<ele>2245</ele>
						<time>2026-08-31T10:32:14Z</time>
					</trkpt>
					<trkpt lat="44.098390" lon="7.286250">
						<ele>2271</ele>
						<time>2026-08-31T10:34:18Z</time>
					</trkpt>
					<trkpt lat="44.098650" lon="7.288180">
						<ele>2273</ele>
						<time>2026-08-31T10:37:26Z</time>
					</trkpt>
					<trkpt lat="44.098610" lon="7.288250">
						<ele>2274</ele>
						<time>2026-08-31T10:37:35Z</time>
					</trkpt>
					<trkpt lat="44.098470" lon="7.288870">
						<ele>2286</ele>
						<time>2026-08-31T10:38:37Z</time>
					</trkpt>
					<trkpt lat="44.098410" lon="7.289470">
						<ele>2295</ele>
						<time>2026-08-31T10:39:35Z</time>
					</trkpt>
					<trkpt lat="44.098300" lon="7.289880">
						<ele>2299</ele>
						<time>2026-08-31T10:40:17Z</time>
					</trkpt>
					<trkpt lat="44.098110" lon="7.290510">
						<ele>2289</ele>
						<time>2026-08-31T10:41:23Z</time>
					</trkpt>
					<trkpt lat="44.098130" lon="7.290580">
						<ele>2291</ele>
						<time>2026-08-31T10:41:30Z</time>
					</trkpt>
					<trkpt lat="44.098140" lon="7.290650">
						<ele>2291</ele>
						<time>2026-08-31T10:41:37Z</time>
					</trkpt>
					<trkpt lat="44.098180" lon="7.291500">
						<ele>2285</ele>
						<time>2026-08-31T10:42:58Z</time>
					</trkpt>
					<trkpt lat="44.098260" lon="7.291590">
						<ele>2289</ele>
						<time>2026-08-31T10:43:12Z</time>
					</trkpt>
					<trkpt lat="44.098290" lon="7.291690">
						<ele>2289</ele>
						<time>2026-08-31T10:43:22Z</time>
					</trkpt>
					<trkpt lat="44.098320" lon="7.291880">
						<ele>2287</ele>
						<time>2026-08-31T10:43:41Z</time>
					</trkpt>
					<trkpt lat="44.098390" lon="7.292020">
						<ele>2285</ele>
						<time>2026-08-31T10:43:57Z</time>
					</trkpt>
					<trkpt lat="44.098450" lon="7.292450">
						<ele>2276</ele>
						<time>2026-08-31T10:44:39Z</time>
					</trkpt>
					<trkpt lat="44.098680" lon="7.293700">
						<ele>2251</ele>
						<time>2026-08-31T10:46:43Z</time>
					</trkpt>
					<trkpt lat="44.098670" lon="7.295050">
						<ele>2230</ele>
						<time>2026-08-31T10:48:52Z</time>
					</trkpt>
					<trkpt lat="44.098630" lon="7.295470">
						<ele>2227</ele>
						<time>2026-08-31T10:49:33Z</time>
					</trkpt>
					<trkpt lat="44.098620" lon="7.295730">
						<ele>2225</ele>
						<time>2026-08-31T10:49:58Z</time>
					</trkpt>
					<trkpt lat="44.098550" lon="7.296200">
						<ele>2219</ele>
						<time>2026-08-31T10:50:44Z</time>
					</trkpt>
					<trkpt lat="44.098230" lon="7.297150">
						<ele>2198</ele>
						<time>2026-08-31T10:52:25Z</time>
					</trkpt>
					<trkpt lat="44.098220" lon="7.297520">
						<ele>2189</ele>
						<time>2026-08-31T10:53:00Z</time>
					</trkpt>
					<trkpt lat="44.098160" lon="7.297840">
						<ele>2188</ele>
						<time>2026-08-31T10:53:32Z</time>
					</trkpt>
					<trkpt lat="44.098120" lon="7.298260">
						<ele>2187</ele>
						<time>2026-08-31T10:54:12Z</time>
					</trkpt>
					<trkpt lat="44.098140" lon="7.298550">
						<ele>2187</ele>
						<time>2026-08-31T10:54:40Z</time>
					</trkpt>
					<trkpt lat="44.098190" lon="7.298770">
						<ele>2189</ele>
						<time>2026-08-31T10:55:02Z</time>
					</trkpt>
					<trkpt lat="44.098380" lon="7.299450">
						<ele>2187</ele>
						<time>2026-08-31T10:56:12Z</time>
					</trkpt>
					<trkpt lat="44.098330" lon="7.299740">
						<ele>2185</ele>
						<time>2026-08-31T10:56:41Z</time>
					</trkpt>
					<trkpt lat="44.098360" lon="7.299910">
						<ele>2183</ele>
						<time>2026-08-31T10:56:58Z</time>
					</trkpt>
					<trkpt lat="44.098350" lon="7.300320">
						<ele>2180</ele>
						<time>2026-08-31T10:57:37Z</time>
					</trkpt>
					<trkpt lat="44.098380" lon="7.300450">
						<ele>2179</ele>
						<time>2026-08-31T10:57:50Z</time>
					</trkpt>
					<trkpt lat="44.098390" lon="7.300660">
						<ele>2177</ele>
						<time>2026-08-31T10:58:10Z</time>
					</trkpt>
					<trkpt lat="44.098420" lon="7.300890">
						<ele>2176</ele>
						<time>2026-08-31T10:58:33Z</time>
					</trkpt>
					<trkpt lat="44.098450" lon="7.300990">
						<ele>2176</ele>
						<time>2026-08-31T10:58:43Z</time>
					</trkpt>
					<trkpt lat="44.098450" lon="7.301060">
						<ele>2176</ele>
						<time>2026-08-31T10:58:50Z</time>
					</trkpt>
					<trkpt lat="44.098480" lon="7.301220">
						<ele>2176</ele>
						<time>2026-08-31T10:59:06Z</time>
					</trkpt>
					<trkpt lat="44.098550" lon="7.301490">
						<ele>2176</ele>
						<time>2026-08-31T10:59:33Z</time>
					</trkpt>
					<trkpt lat="44.098560" lon="7.301560">
						<ele>2176</ele>
						<time>2026-08-31T10:59:40Z</time>
					</trkpt>
					<trkpt lat="44.098550" lon="7.301640">
						<ele>2177</ele>
						<time>2026-08-31T10:59:48Z</time>
					</trkpt>
					<trkpt lat="44.098500" lon="7.301750">
						<ele>2178</ele>
						<time>2026-08-31T11:00:00Z</time>
					</trkpt>
					<trkpt lat="44.098490" lon="7.302100">
						<ele>2181</ele>
						<time>2026-08-31T11:00:34Z</time>
					</trkpt>
					<trkpt lat="44.098510" lon="7.302250">
						<ele>2182</ele>
						<time>2026-08-31T11:00:48Z</time>
					</trkpt>
					<trkpt lat="44.098490" lon="7.302650">
						<ele>2183</ele>
						<time>2026-08-31T11:01:27Z</time>
					</trkpt>
					<trkpt lat="44.098460" lon="7.302940">
						<ele>2182</ele>
						<time>2026-08-31T11:01:55Z</time>
					</trkpt>
					<trkpt lat="44.098450" lon="7.303240">
						<ele>2181</ele>
						<time>2026-08-31T11:02:24Z</time>
					</trkpt>
					<trkpt lat="44.098430" lon="7.303390">
						<ele>2181</ele>
						<time>2026-08-31T11:02:38Z</time>
					</trkpt>
					<trkpt lat="44.098450" lon="7.303530">
						<ele>2182</ele>
						<time>2026-08-31T11:02:52Z</time>
					</trkpt>
					<trkpt lat="44.098410" lon="7.303620">
						<ele>2182</ele>
						<time>2026-08-31T11:03:02Z</time>
					</trkpt>
					<trkpt lat="44.098380" lon="7.303750">
						<ele>2183</ele>
						<time>2026-08-31T11:03:15Z</time>
					</trkpt>
					<trkpt lat="44.098300" lon="7.303960">
						<ele>2183</ele>
						<time>2026-08-31T11:03:38Z</time>
					</trkpt>
					<trkpt lat="44.098240" lon="7.304240">
						<ele>2183</ele>
						<time>2026-08-31T11:04:06Z</time>
					</trkpt>
					<trkpt lat="44.098170" lon="7.304450">
						<ele>2182</ele>
						<time>2026-08-31T11:04:28Z</time>
					</trkpt>
					<trkpt lat="44.098170" lon="7.304640">
						<ele>2184</ele>
						<time>2026-08-31T11:04:46Z</time>
					</trkpt>
					<trkpt lat="44.098100" lon="7.304850">
						<ele>2184</ele>
						<time>2026-08-31T11:05:09Z</time>
					</trkpt>
					<trkpt lat="44.098140" lon="7.305070">
						<ele>2186</ele>
						<time>2026-08-31T11:05:30Z</time>
					</trkpt>
					<trkpt lat="44.098100" lon="7.305150">
						<ele>2184</ele>
						<time>2026-08-31T11:05:40Z</time>
					</trkpt>
					<trkpt lat="44.098120" lon="7.305290">
						<ele>2184</ele>
						<time>2026-08-31T11:05:53Z</time>
					</trkpt>
					<trkpt lat="44.098090" lon="7.305460">
						<ele>2182</ele>
						<time>2026-08-31T11:06:10Z</time>
					</trkpt>
					<trkpt lat="44.098030" lon="7.305580">
						<ele>2181</ele>
						<time>2026-08-31T11:06:24Z</time>
					</trkpt>
					<trkpt lat="44.097990" lon="7.305740">
						<ele>2180</ele>
						<time>2026-08-31T11:06:40Z</time>
					</trkpt>
					<trkpt lat="44.097950" lon="7.305960">
						<ele>2177</ele>
						<time>2026-08-31T11:07:02Z</time>
					</trkpt>
					<trkpt lat="44.097960" lon="7.306140">
						<ele>2174</ele>
						<time>2026-08-31T11:07:19Z</time>
					</trkpt>
					<trkpt lat="44.097900" lon="7.306350">
						<ele>2170</ele>
						<time>2026-08-31T11:07:41Z</time>
					</trkpt>
					<trkpt lat="44.097980" lon="7.306580">
						<ele>2166</ele>
						<time>2026-08-31T11:08:06Z</time>
					</trkpt>
					<trkpt lat="44.098050" lon="7.306690">
						<ele>2164</ele>
						<time>2026-08-31T11:08:20Z</time>
					</trkpt>
					<trkpt lat="44.098140" lon="7.307010">
						<ele>2157</ele>
						<time>2026-08-31T11:08:53Z</time>
					</trkpt>
					<trkpt lat="44.098230" lon="7.307240">
						<ele>2153</ele>
						<time>2026-08-31T11:09:18Z</time>
					</trkpt>
					<trkpt lat="44.098400" lon="7.307490">
						<ele>2148</ele>
						<time>2026-08-31T11:09:51Z</time>
					</trkpt>
					<trkpt lat="44.098550" lon="7.308140">
						<ele>2132</ele>
						<time>2026-08-31T11:10:56Z</time>
					</trkpt>
					<trkpt lat="44.098600" lon="7.308600">
						<ele>2124</ele>
						<time>2026-08-31T11:11:41Z</time>
					</trkpt>
					<trkpt lat="44.098630" lon="7.308830">
						<ele>2120</ele>
						<time>2026-08-31T11:12:03Z</time>
					</trkpt>
					<trkpt lat="44.098670" lon="7.309290">
						<ele>2116</ele>
						<time>2026-08-31T11:12:48Z</time>
					</trkpt>
					<trkpt lat="44.098680" lon="7.309530">
						<ele>2115</ele>
						<time>2026-08-31T11:13:11Z</time>
					</trkpt>
					<trkpt lat="44.098720" lon="7.309650">
						<ele>2115</ele>
						<time>2026-08-31T11:13:23Z</time>
					</trkpt>
					<trkpt lat="44.098760" lon="7.309930">
						<ele>2115</ele>
						<time>2026-08-31T11:13:51Z</time>
					</trkpt>
					<trkpt lat="44.098840" lon="7.310010">
						<ele>2116</ele>
						<time>2026-08-31T11:14:04Z</time>
					</trkpt>
					<trkpt lat="44.098920" lon="7.310120">
						<ele>2118</ele>
						<time>2026-08-31T11:14:19Z</time>
					</trkpt>
					<trkpt lat="44.098980" lon="7.310190">
						<ele>2119</ele>
						<time>2026-08-31T11:14:29Z</time>
					</trkpt>
					<trkpt lat="44.099160" lon="7.310330">
						<ele>2123</ele>
						<time>2026-08-31T11:14:57Z</time>
					</trkpt>
					<trkpt lat="44.099410" lon="7.310490">
						<ele>2121</ele>
						<time>2026-08-31T11:15:33Z</time>
					</trkpt>
					<trkpt lat="44.099520" lon="7.310600">
						<ele>2120</ele>
						<time>2026-08-31T11:15:51Z</time>
					</trkpt>
					<trkpt lat="44.099600" lon="7.310720">
						<ele>2119</ele>
						<time>2026-08-31T11:16:07Z</time>
					</trkpt>
					<trkpt lat="44.099610" lon="7.310790">
						<ele>2119</ele>
						<time>2026-08-31T11:16:14Z</time>
					</trkpt>
					<trkpt lat="44.099700" lon="7.311000">
						<ele>2117</ele>
						<time>2026-08-31T11:16:37Z</time>
					</trkpt>
					<trkpt lat="44.099840" lon="7.311110">
						<ele>2115</ele>
						<time>2026-08-31T11:16:59Z</time>
					</trkpt>
					<trkpt lat="44.099830" lon="7.311370">
						<ele>2113</ele>
						<time>2026-08-31T11:17:24Z</time>
					</trkpt>
					<trkpt lat="44.099960" lon="7.311620">
						<ele>2110</ele>
						<time>2026-08-31T11:17:53Z</time>
					</trkpt>
					<trkpt lat="44.100090" lon="7.311470">
						<ele>2106</ele>
						<time>2026-08-31T11:18:16Z</time>
					</trkpt>
					<trkpt lat="44.100140" lon="7.311800">
						<ele>2102</ele>
						<time>2026-08-31T11:18:48Z</time>
					</trkpt>
					<trkpt lat="44.100250" lon="7.311780">
						<ele>2097</ele>
						<time>2026-08-31T11:19:03Z</time>
					</trkpt>
					<trkpt lat="44.100360" lon="7.312070">
						<ele>2091</ele>
						<time>2026-08-31T11:19:35Z</time>
					</trkpt>
					<trkpt lat="44.100490" lon="7.311940">
						<ele>2085</ele>
						<time>2026-08-31T11:19:56Z</time>
					</trkpt>
					<trkpt lat="44.100540" lon="7.311890">
						<ele>2082</ele>
						<time>2026-08-31T11:20:04Z</time>
					</trkpt>
					<trkpt lat="44.100690" lon="7.312190">
						<ele>2075</ele>
						<time>2026-08-31T11:20:39Z</time>
					</trkpt>
					<trkpt lat="44.100740" lon="7.312480">
						<ele>2073</ele>
						<time>2026-08-31T11:21:08Z</time>
					</trkpt>
					<trkpt lat="44.100790" lon="7.312380">
						<ele>2070</ele>
						<time>2026-08-31T11:21:19Z</time>
					</trkpt>
					<trkpt lat="44.100810" lon="7.312230">
						<ele>2069</ele>
						<time>2026-08-31T11:21:34Z</time>
					</trkpt>
					<trkpt lat="44.100920" lon="7.312080">
						<ele>2064</ele>
						<time>2026-08-31T11:21:55Z</time>
					</trkpt>
					<trkpt lat="44.100960" lon="7.312140">
						<ele>2063</ele>
						<time>2026-08-31T11:22:02Z</time>
					</trkpt>
					<trkpt lat="44.101070" lon="7.312120">
						<ele>2058</ele>
						<time>2026-08-31T11:22:17Z</time>
					</trkpt>
					<trkpt lat="44.101560" lon="7.313030">
						<ele>2042</ele>
						<time>2026-08-31T11:24:06Z</time>
					</trkpt>
					<trkpt lat="44.101780" lon="7.313230">
						<ele>2031</ele>
						<time>2026-08-31T11:24:41Z</time>
					</trkpt>
					<trkpt lat="44.101740" lon="7.313390">
						<ele>2033</ele>
						<time>2026-08-31T11:24:57Z</time>
					</trkpt>
					<trkpt lat="44.101840" lon="7.313350">
						<ele>2028</ele>
						<time>2026-08-31T11:25:11Z</time>
					</trkpt>
					<trkpt lat="44.101850" lon="7.313450">
						<ele>2028</ele>
						<time>2026-08-31T11:25:21Z</time>
					</trkpt>
					<trkpt lat="44.101910" lon="7.313400">
						<ele>2024</ele>
						<time>2026-08-31T11:25:30Z</time>
					</trkpt>
					<trkpt lat="44.101960" lon="7.313630">
						<ele>2022</ele>
						<time>2026-08-31T11:25:53Z</time>
					</trkpt>
					<trkpt lat="44.102050" lon="7.313640">
						<ele>2017</ele>
						<time>2026-08-31T11:26:05Z</time>
					</trkpt>
					<trkpt lat="44.102210" lon="7.313860">
						<ele>2009</ele>
						<time>2026-08-31T11:26:35Z</time>
					</trkpt>
					<trkpt lat="44.102270" lon="7.313810">
						<ele>2005</ele>
						<time>2026-08-31T11:26:45Z</time>
					</trkpt>
					<trkpt lat="44.102640" lon="7.314080">
						<ele>1982</ele>
						<time>2026-08-31T11:27:41Z</time>
					</trkpt>
					<trkpt lat="44.102730" lon="7.314080">
						<ele>1977</ele>
						<time>2026-08-31T11:27:53Z</time>
					</trkpt>
					<trkpt lat="44.102760" lon="7.314310">
						<ele>1976</ele>
						<time>2026-08-31T11:28:15Z</time>
					</trkpt>
					<trkpt lat="44.102800" lon="7.314240">
						<ele>1973</ele>
						<time>2026-08-31T11:28:24Z</time>
					</trkpt>
					<trkpt lat="44.102850" lon="7.314540">
						<ele>1973</ele>
						<time>2026-08-31T11:28:53Z</time>
					</trkpt>
					<trkpt lat="44.102920" lon="7.314840">
						<ele>1970</ele>
						<time>2026-08-31T11:29:23Z</time>
					</trkpt>
					<trkpt lat="44.103010" lon="7.314570">
						<ele>1962</ele>
						<time>2026-08-31T11:29:52Z</time>
					</trkpt>
					<trkpt lat="44.103050" lon="7.314700">
						<ele>1960</ele>
						<time>2026-08-31T11:30:05Z</time>
					</trkpt>
					<trkpt lat="44.103290" lon="7.314960">
						<ele>1942</ele>
						<time>2026-08-31T11:30:46Z</time>
					</trkpt>
					<trkpt lat="44.103290" lon="7.314830">
						<ele>1942</ele>
						<time>2026-08-31T11:30:58Z</time>
					</trkpt>
					<trkpt lat="44.103330" lon="7.314790">
						<ele>1939</ele>
						<time>2026-08-31T11:31:05Z</time>
					</trkpt>
					<trkpt lat="44.103540" lon="7.314920">
						<ele>1923</ele>
						<time>2026-08-31T11:31:36Z</time>
					</trkpt>
					<trkpt lat="44.103540" lon="7.314680">
						<ele>1924</ele>
						<time>2026-08-31T11:31:59Z</time>
					</trkpt>
					<trkpt lat="44.103670" lon="7.314820">
						<ele>1914</ele>
						<time>2026-08-31T11:32:21Z</time>
					</trkpt>
					<trkpt lat="44.103680" lon="7.314720">
						<ele>1913</ele>
						<time>2026-08-31T11:32:30Z</time>
					</trkpt>
					<trkpt lat="44.103710" lon="7.314730">
						<ele>1911</ele>
						<time>2026-08-31T11:32:34Z</time>
					</trkpt>
					<trkpt lat="44.103710" lon="7.314650">
						<ele>1911</ele>
						<time>2026-08-31T11:32:42Z</time>
					</trkpt>
					<trkpt lat="44.103760" lon="7.314690">
						<ele>1907</ele>
						<time>2026-08-31T11:32:50Z</time>
					</trkpt>
					<trkpt lat="44.103800" lon="7.314760">
						<ele>1904</ele>
						<time>2026-08-31T11:32:58Z</time>
					</trkpt>
					<trkpt lat="44.103840" lon="7.314630">
						<ele>1901</ele>
						<time>2026-08-31T11:33:12Z</time>
					</trkpt>
					<trkpt lat="44.103890" lon="7.314720">
						<ele>1897</ele>
						<time>2026-08-31T11:33:23Z</time>
					</trkpt>
					<trkpt lat="44.103940" lon="7.314580">
						<ele>1894</ele>
						<time>2026-08-31T11:33:38Z</time>
					</trkpt>
					<trkpt lat="44.103940" lon="7.314480">
						<ele>1895</ele>
						<time>2026-08-31T11:33:47Z</time>
					</trkpt>
					<trkpt lat="44.103950" lon="7.314420">
						<ele>1894</ele>
						<time>2026-08-31T11:33:53Z</time>
					</trkpt>
					<trkpt lat="44.104030" lon="7.314540">
						<ele>1888</ele>
						<time>2026-08-31T11:34:09Z</time>
					</trkpt>
					<trkpt lat="44.104050" lon="7.314620">
						<ele>1886</ele>
						<time>2026-08-31T11:34:17Z</time>
					</trkpt>
					<trkpt lat="44.104090" lon="7.314640">
						<ele>1883</ele>
						<time>2026-08-31T11:34:23Z</time>
					</trkpt>
					<trkpt lat="44.104110" lon="7.314570">
						<ele>1882</ele>
						<time>2026-08-31T11:34:30Z</time>
					</trkpt>
					<trkpt lat="44.104180" lon="7.314640">
						<ele>1876</ele>
						<time>2026-08-31T11:34:41Z</time>
					</trkpt>
					<trkpt lat="44.104220" lon="7.314570">
						<ele>1874</ele>
						<time>2026-08-31T11:34:50Z</time>
					</trkpt>
					<trkpt lat="44.104290" lon="7.314580">
						<ele>1869</ele>
						<time>2026-08-31T11:34:59Z</time>
					</trkpt>
					<trkpt lat="44.104320" lon="7.314650">
						<ele>1867</ele>
						<time>2026-08-31T11:35:07Z</time>
					</trkpt>
					<trkpt lat="44.104360" lon="7.314560">
						<ele>1865</ele>
						<time>2026-08-31T11:35:17Z</time>
					</trkpt>
					<trkpt lat="44.104420" lon="7.314590">
						<ele>1861</ele>
						<time>2026-08-31T11:35:26Z</time>
					</trkpt>
					<trkpt lat="44.104440" lon="7.314560">
						<ele>1860</ele>
						<time>2026-08-31T11:35:30Z</time>
					</trkpt>
					<trkpt lat="44.104480" lon="7.314610">
						<ele>1857</ele>
						<time>2026-08-31T11:35:37Z</time>
					</trkpt>
					<trkpt lat="44.104550" lon="7.314610">
						<ele>1852</ele>
						<time>2026-08-31T11:35:46Z</time>
					</trkpt>
					<trkpt lat="44.104610" lon="7.314450">
						<ele>1849</ele>
						<time>2026-08-31T11:36:04Z</time>
					</trkpt>
					<trkpt lat="44.104730" lon="7.314400">
						<ele>1841</ele>
						<time>2026-08-31T11:36:20Z</time>
					</trkpt>
					<trkpt lat="44.104840" lon="7.314620">
						<ele>1833</ele>
						<time>2026-08-31T11:36:46Z</time>
					</trkpt>
					<trkpt lat="44.104910" lon="7.314520">
						<ele>1829</ele>
						<time>2026-08-31T11:36:59Z</time>
					</trkpt>
					<trkpt lat="44.104930" lon="7.314800">
						<ele>1827</ele>
						<time>2026-08-31T11:37:26Z</time>
					</trkpt>
					<trkpt lat="44.104990" lon="7.314890">
						<ele>1823</ele>
						<time>2026-08-31T11:37:38Z</time>
					</trkpt>
					<trkpt lat="44.105280" lon="7.314760">
						<ele>1807</ele>
						<time>2026-08-31T11:38:19Z</time>
					</trkpt>
					<trkpt lat="44.105360" lon="7.314710">
						<ele>1802</ele>
						<time>2026-08-31T11:38:30Z</time>
					</trkpt>
					<trkpt lat="44.105380" lon="7.314850">
						<ele>1802</ele>
						<time>2026-08-31T11:38:44Z</time>
					</trkpt>
					<trkpt lat="44.105460" lon="7.314910">
						<ele>1798</ele>
						<time>2026-08-31T11:38:56Z</time>
					</trkpt>
					<trkpt lat="44.105480" lon="7.314740">
						<ele>1796</ele>
						<time>2026-08-31T11:39:13Z</time>
					</trkpt>
					<trkpt lat="44.105590" lon="7.314840">
						<ele>1791</ele>
						<time>2026-08-31T11:39:30Z</time>
					</trkpt>
					<trkpt lat="44.105620" lon="7.314760">
						<ele>1788</ele>
						<time>2026-08-31T11:39:39Z</time>
					</trkpt>
					<trkpt lat="44.105740" lon="7.314800">
						<ele>1782</ele>
						<time>2026-08-31T11:39:55Z</time>
					</trkpt>
					<trkpt lat="44.105740" lon="7.314720">
						<ele>1781</ele>
						<time>2026-08-31T11:40:03Z</time>
					</trkpt>
					<trkpt lat="44.105800" lon="7.314800">
						<ele>1779</ele>
						<time>2026-08-31T11:40:14Z</time>
					</trkpt>
					<trkpt lat="44.105870" lon="7.314670">
						<ele>1774</ele>
						<time>2026-08-31T11:40:30Z</time>
					</trkpt>
					<trkpt lat="44.105930" lon="7.314710">
						<ele>1773</ele>
						<time>2026-08-31T11:40:39Z</time>
					</trkpt>
					<trkpt lat="44.106120" lon="7.314480">
						<ele>1764</ele>
						<time>2026-08-31T11:41:12Z</time>
					</trkpt>
					<trkpt lat="44.106160" lon="7.314450">
						<ele>1762</ele>
						<time>2026-08-31T11:41:18Z</time>
					</trkpt>
					<trkpt lat="44.106180" lon="7.314350">
						<ele>1760</ele>
						<time>2026-08-31T11:41:28Z</time>
					</trkpt>
					<trkpt lat="44.106410" lon="7.314300">
						<ele>1752</ele>
						<time>2026-08-31T11:41:59Z</time>
					</trkpt>
					<trkpt lat="44.106450" lon="7.314210">
						<ele>1750</ele>
						<time>2026-08-31T11:42:09Z</time>
					</trkpt>
					<trkpt lat="44.106570" lon="7.314220">
						<ele>1746</ele>
						<time>2026-08-31T11:42:25Z</time>
					</trkpt>
					<trkpt lat="44.106610" lon="7.314110">
						<ele>1744</ele>
						<time>2026-08-31T11:42:37Z</time>
					</trkpt>
					<trkpt lat="44.106780" lon="7.313980">
						<ele>1738</ele>
						<time>2026-08-31T11:43:03Z</time>
					</trkpt>
					<trkpt lat="44.106940" lon="7.314070">
						<ele>1734</ele>
						<time>2026-08-31T11:43:26Z</time>
					</trkpt>
					<trkpt lat="44.107050" lon="7.313850">
						<ele>1729</ele>
						<time>2026-08-31T11:43:52Z</time>
					</trkpt>
					<trkpt lat="44.107140" lon="7.313920">
						<ele>1727</ele>
						<time>2026-08-31T11:44:06Z</time>
					</trkpt>
					<trkpt lat="44.107550" lon="7.313790">
						<ele>1716</ele>
						<time>2026-08-31T11:45:02Z</time>
					</trkpt>
					<trkpt lat="44.107810" lon="7.313720">
						<ele>1711</ele>
						<time>2026-08-31T11:45:37Z</time>
					</trkpt>
					<trkpt lat="44.108020" lon="7.313700">
						<ele>1707</ele>
						<time>2026-08-31T11:46:05Z</time>
					</trkpt>
					<trkpt lat="44.108060" lon="7.313530">
						<ele>1706</ele>
						<time>2026-08-31T11:46:22Z</time>
					</trkpt>
					<trkpt lat="44.108060" lon="7.313270">
						<ele>1705</ele>
						<time>2026-08-31T11:46:47Z</time>
					</trkpt>
					<trkpt lat="44.108010" lon="7.312840">
						<ele>1703</ele>
						<time>2026-08-31T11:47:29Z</time>
					</trkpt>
					<trkpt lat="44.107950" lon="7.312060">
						<ele>1698</ele>
						<time>2026-08-31T11:48:44Z</time>
					</trkpt>
					<trkpt lat="44.107900" lon="7.311780">
						<ele>1695</ele>
						<time>2026-08-31T11:49:12Z</time>
					</trkpt>
					<trkpt lat="44.107890" lon="7.311700">
						<ele>1695</ele>
						<time>2026-08-31T11:49:20Z</time>
					</trkpt>
					<trkpt lat="44.107760" lon="7.311460">
						<ele>1695</ele>
						<time>2026-08-31T11:49:48Z</time>
					</trkpt>
					<trkpt lat="44.107650" lon="7.311300">
						<ele>1696</ele>
						<time>2026-08-31T11:50:10Z</time>
					</trkpt>
					<trkpt lat="44.107620" lon="7.311150">
						<ele>1696</ele>
						<time>2026-08-31T11:50:24Z</time>
					</trkpt>
					<trkpt lat="44.107700" lon="7.310910">
						<ele>1694</ele>
						<time>2026-08-31T11:50:50Z</time>
					</trkpt>
					<trkpt lat="44.107760" lon="7.310590">
						<ele>1690</ele>
						<time>2026-08-31T11:51:22Z</time>
					</trkpt>
					<trkpt lat="44.107780" lon="7.310420">
						<ele>1688</ele>
						<time>2026-08-31T11:51:38Z</time>
					</trkpt>
					<trkpt lat="44.107810" lon="7.309950">
						<ele>1683</ele>
						<time>2026-08-31T11:52:23Z</time>
					</trkpt>
					<trkpt lat="44.107710" lon="7.309490">
						<ele>1681</ele>
						<time>2026-08-31T11:53:09Z</time>
					</trkpt>
					<trkpt lat="44.107660" lon="7.309080">
						<ele>1679</ele>
						<time>2026-08-31T11:53:49Z</time>
					</trkpt>
					<trkpt lat="44.107630" lon="7.308810">
						<ele>1681</ele>
						<time>2026-08-31T11:54:15Z</time>
					</trkpt>
					<trkpt lat="44.107800" lon="7.308150">
						<ele>1674</ele>
						<time>2026-08-31T11:55:22Z</time>
					</trkpt>
					<trkpt lat="44.107890" lon="7.307860">
						<ele>1671</ele>
						<time>2026-08-31T11:55:53Z</time>
					</trkpt>
					<trkpt lat="44.107950" lon="7.307690">
						<ele>1668</ele>
						<time>2026-08-31T11:56:11Z</time>
					</trkpt>
					<trkpt lat="44.108090" lon="7.307450">
						<ele>1663</ele>
						<time>2026-08-31T11:56:41Z</time>
					</trkpt>
					<trkpt lat="44.108150" lon="7.307180">
						<ele>1662</ele>
						<time>2026-08-31T11:57:08Z</time>
					</trkpt>
					<trkpt lat="44.108150" lon="7.306840">
						<ele>1663</ele>
						<time>2026-08-31T11:57:40Z</time>
					</trkpt>
					<trkpt lat="44.108110" lon="7.306360">
						<ele>1664</ele>
						<time>2026-08-31T11:58:27Z</time>
					</trkpt>
					<trkpt lat="44.108130" lon="7.306050">
						<ele>1662</ele>
						<time>2026-08-31T11:58:56Z</time>
					</trkpt>
					<trkpt lat="44.108160" lon="7.305850">
						<ele>1660</ele>
						<time>2026-08-31T11:59:16Z</time>
					</trkpt>
					<trkpt lat="44.108330" lon="7.305480">
						<ele>1654</ele>
						<time>2026-08-31T11:59:58Z</time>
					</trkpt>
					<trkpt lat="44.108450" lon="7.305190">
						<ele>1650</ele>
						<time>2026-08-31T12:00:30Z</time>
					</trkpt>
					<trkpt lat="44.108460" lon="7.304980">
						<ele>1650</ele>
						<time>2026-08-31T12:00:50Z</time>
					</trkpt>
					<trkpt lat="44.108440" lon="7.304720">
						<ele>1653</ele>
						<time>2026-08-31T12:01:15Z</time>
					</trkpt>
					<trkpt lat="44.108440" lon="7.304540">
						<ele>1654</ele>
						<time>2026-08-31T12:01:33Z</time>
					</trkpt>
					<trkpt lat="44.108460" lon="7.304400">
						<ele>1654</ele>
						<time>2026-08-31T12:01:46Z</time>
					</trkpt>
					<trkpt lat="44.108500" lon="7.304360">
						<ele>1653</ele>
						<time>2026-08-31T12:01:53Z</time>
					</trkpt>
					<trkpt lat="44.108540" lon="7.304220">
						<ele>1652</ele>
						<time>2026-08-31T12:02:07Z</time>
					</trkpt>
					<trkpt lat="44.108580" lon="7.303870">
						<ele>1652</ele>
						<time>2026-08-31T12:02:41Z</time>
					</trkpt>
					<trkpt lat="44.108560" lon="7.303660">
						<ele>1654</ele>
						<time>2026-08-31T12:03:01Z</time>
					</trkpt>
					<trkpt lat="44.108560" lon="7.303430">
						<ele>1655</ele>
						<time>2026-08-31T12:03:24Z</time>
					</trkpt>
					<trkpt lat="44.108590" lon="7.303310">
						<ele>1654</ele>
						<time>2026-08-31T12:03:36Z</time>
					</trkpt>
					<trkpt lat="44.108710" lon="7.303060">
						<ele>1652</ele>
						<time>2026-08-31T12:04:05Z</time>
					</trkpt>
					<trkpt lat="44.108760" lon="7.302920">
						<ele>1651</ele>
						<time>2026-08-31T12:04:19Z</time>
					</trkpt>
					<trkpt lat="44.108820" lon="7.302850">
						<ele>1649</ele>
						<time>2026-08-31T12:04:30Z</time>
					</trkpt>
					<trkpt lat="44.108770" lon="7.303530">
						<ele>1646</ele>
						<time>2026-08-31T12:05:35Z</time>
					</trkpt>
					<trkpt lat="44.108870" lon="7.303800">
						<ele>1641</ele>
						<time>2026-08-31T12:06:05Z</time>
					</trkpt>
					<trkpt lat="44.108950" lon="7.303830">
						<ele>1638</ele>
						<time>2026-08-31T12:06:16Z</time>
					</trkpt>
					<trkpt lat="44.109030" lon="7.303810">
						<ele>1634</ele>
						<time>2026-08-31T12:06:26Z</time>
					</trkpt>
					<trkpt lat="44.109080" lon="7.303650">
						<ele>1633</ele>
						<time>2026-08-31T12:06:43Z</time>
					</trkpt>
					<trkpt lat="44.109260" lon="7.303230">
						<ele>1626</ele>
						<time>2026-08-31T12:07:30Z</time>
					</trkpt>
					<trkpt lat="44.109340" lon="7.302960">
						<ele>1623</ele>
						<time>2026-08-31T12:07:58Z</time>
					</trkpt>
					<trkpt lat="44.109390" lon="7.302560">
						<ele>1623</ele>
						<time>2026-08-31T12:08:37Z</time>
					</trkpt>
					<trkpt lat="44.109380" lon="7.302350">
						<ele>1624</ele>
						<time>2026-08-31T12:08:57Z</time>
					</trkpt>
					<trkpt lat="44.109390" lon="7.302070">
						<ele>1625</ele>
						<time>2026-08-31T12:09:24Z</time>
					</trkpt>
					<trkpt lat="44.109470" lon="7.301490">
						<ele>1623</ele>
						<time>2026-08-31T12:10:21Z</time>
					</trkpt>
					<trkpt lat="44.109490" lon="7.301150">
						<ele>1624</ele>
						<time>2026-08-31T12:10:53Z</time>
					</trkpt>
					<trkpt lat="44.109610" lon="7.300800">
						<ele>1619</ele>
						<time>2026-08-31T12:11:30Z</time>
					</trkpt>
					<trkpt lat="44.109680" lon="7.300460">
						<ele>1617</ele>
						<time>2026-08-31T12:12:04Z</time>
					</trkpt>
					<trkpt lat="44.109720" lon="7.300100">
						<ele>1616</ele>
						<time>2026-08-31T12:12:39Z</time>
					</trkpt>
					<trkpt lat="44.109720" lon="7.299690">
						<ele>1618</ele>
						<time>2026-08-31T12:13:18Z</time>
					</trkpt>
					<trkpt lat="44.109900" lon="7.298830">
						<ele>1609</ele>
						<time>2026-08-31T12:14:44Z</time>
					</trkpt>
					<trkpt lat="44.109930" lon="7.298660">
						<ele>1609</ele>
						<time>2026-08-31T12:15:01Z</time>
					</trkpt>
					<trkpt lat="44.109940" lon="7.298460">
						<ele>1611</ele>
						<time>2026-08-31T12:15:20Z</time>
					</trkpt>
					<trkpt lat="44.109980" lon="7.298360">
						<ele>1610</ele>
						<time>2026-08-31T12:15:31Z</time>
					</trkpt>
					<trkpt lat="44.110080" lon="7.298190">
						<ele>1606</ele>
						<time>2026-08-31T12:15:52Z</time>
					</trkpt>
					<trkpt lat="44.110210" lon="7.297670">
						<ele>1604</ele>
						<time>2026-08-31T12:16:45Z</time>
					</trkpt>
					<trkpt lat="44.110300" lon="7.297520">
						<ele>1600</ele>
						<time>2026-08-31T12:17:04Z</time>
					</trkpt>
					<trkpt lat="44.110450" lon="7.297210">
						<ele>1595</ele>
						<time>2026-08-31T12:17:40Z</time>
					</trkpt>
					<trkpt lat="44.110520" lon="7.297010">
						<ele>1594</ele>
						<time>2026-08-31T12:18:01Z</time>
					</trkpt>
					<trkpt lat="44.110580" lon="7.296800">
						<ele>1594</ele>
						<time>2026-08-31T12:18:23Z</time>
					</trkpt>
					<trkpt lat="44.110600" lon="7.296650">
						<ele>1595</ele>
						<time>2026-08-31T12:18:37Z</time>
					</trkpt>
					<trkpt lat="44.110620" lon="7.296300">
						<ele>1596</ele>
						<time>2026-08-31T12:19:11Z</time>
					</trkpt>
					<trkpt lat="44.110610" lon="7.296130">
						<ele>1597</ele>
						<time>2026-08-31T12:19:27Z</time>
					</trkpt>
					<trkpt lat="44.110650" lon="7.295950">
						<ele>1596</ele>
						<time>2026-08-31T12:19:45Z</time>
					</trkpt>
					<trkpt lat="44.110680" lon="7.295810">
						<ele>1594</ele>
						<time>2026-08-31T12:19:59Z</time>
					</trkpt>
					<trkpt lat="44.110790" lon="7.295490">
						<ele>1589</ele>
						<time>2026-08-31T12:20:33Z</time>
					</trkpt>
					<trkpt lat="44.110810" lon="7.295130">
						<ele>1589</ele>
						<time>2026-08-31T12:21:08Z</time>
					</trkpt>
					<trkpt lat="44.110810" lon="7.294830">
						<ele>1590</ele>
						<time>2026-08-31T12:21:37Z</time>
					</trkpt>
					<trkpt lat="44.110790" lon="7.294380">
						<ele>1594</ele>
						<time>2026-08-31T12:22:20Z</time>
					</trkpt>
					<trkpt lat="44.110830" lon="7.294140">
						<ele>1593</ele>
						<time>2026-08-31T12:22:43Z</time>
					</trkpt>
					<trkpt lat="44.110880" lon="7.293990">
						<ele>1592</ele>
						<time>2026-08-31T12:22:59Z</time>
					</trkpt>
					<trkpt lat="44.110950" lon="7.293860">
						<ele>1591</ele>
						<time>2026-08-31T12:23:15Z</time>
					</trkpt>
					<trkpt lat="44.111080" lon="7.293660">
						<ele>1587</ele>
						<time>2026-08-31T12:23:41Z</time>
					</trkpt>
					<trkpt lat="44.111290" lon="7.293180">
						<ele>1581</ele>
						<time>2026-08-31T12:24:34Z</time>
					</trkpt>
					<trkpt lat="44.111390" lon="7.292880">
						<ele>1578</ele>
						<time>2026-08-31T12:25:06Z</time>
					</trkpt>
					<trkpt lat="44.111470" lon="7.292590">
						<ele>1576</ele>
						<time>2026-08-31T12:25:36Z</time>
					</trkpt>
					<trkpt lat="44.111520" lon="7.292310">
						<ele>1576</ele>
						<time>2026-08-31T12:26:04Z</time>
					</trkpt>
					<trkpt lat="44.111580" lon="7.292070">
						<ele>1575</ele>
						<time>2026-08-31T12:26:28Z</time>
					</trkpt>
					<trkpt lat="44.111690" lon="7.291750">
						<ele>1573</ele>
						<time>2026-08-31T12:27:02Z</time>
					</trkpt>
					<trkpt lat="44.111830" lon="7.291490">
						<ele>1570</ele>
						<time>2026-08-31T12:27:33Z</time>
					</trkpt>
					<trkpt lat="44.111940" lon="7.291320">
						<ele>1566</ele>
						<time>2026-08-31T12:27:55Z</time>
					</trkpt>
					<trkpt lat="44.112000" lon="7.291260">
						<ele>1564</ele>
						<time>2026-08-31T12:28:05Z</time>
					</trkpt>
					<trkpt lat="44.112030" lon="7.291170">
						<ele>1564</ele>
						<time>2026-08-31T12:28:14Z</time>
					</trkpt>
					<trkpt lat="44.112030" lon="7.291050">
						<ele>1565</ele>
						<time>2026-08-31T12:28:26Z</time>
					</trkpt>
					<trkpt lat="44.112020" lon="7.290960">
						<ele>1566</ele>
						<time>2026-08-31T12:28:35Z</time>
					</trkpt>
					<trkpt lat="44.111990" lon="7.290820">
						<ele>1568</ele>
						<time>2026-08-31T12:28:49Z</time>
					</trkpt>
					<trkpt lat="44.112000" lon="7.290730">
						<ele>1567</ele>
						<time>2026-08-31T12:28:57Z</time>
					</trkpt>
					<trkpt lat="44.112060" lon="7.290680">
						<ele>1564</ele>
						<time>2026-08-31T12:29:07Z</time>
					</trkpt>
					<trkpt lat="44.112150" lon="7.290640">
						<ele>1560</ele>
						<time>2026-08-31T12:29:19Z</time>
					</trkpt>
					<trkpt lat="44.112190" lon="7.290410">
						<ele>1557</ele>
						<time>2026-08-31T12:29:42Z</time>
					</trkpt>
					<trkpt lat="44.112320" lon="7.290010">
						<ele>1548</ele>
						<time>2026-08-31T12:30:24Z</time>
					</trkpt>
					<trkpt lat="44.112390" lon="7.289970">
						<ele>1544</ele>
						<time>2026-08-31T12:30:34Z</time>
					</trkpt>
					<trkpt lat="44.112650" lon="7.290030">
						<ele>1537</ele>
						<time>2026-08-31T12:31:09Z</time>
					</trkpt>
					<trkpt lat="44.112860" lon="7.290230">
						<ele>1532</ele>
						<time>2026-08-31T12:31:43Z</time>
					</trkpt>
					<trkpt lat="44.112960" lon="7.290310">
						<ele>1530</ele>
						<time>2026-08-31T12:31:59Z</time>
					</trkpt>
					<trkpt lat="44.112960" lon="7.290400">
						<ele>1530</ele>
						<time>2026-08-31T12:32:07Z</time>
					</trkpt>
					<trkpt lat="44.112930" lon="7.290540">
						<ele>1532</ele>
						<time>2026-08-31T12:32:21Z</time>
					</trkpt>
					<trkpt lat="44.113040" lon="7.290980">
						<ele>1529</ele>
						<time>2026-08-31T12:33:06Z</time>
					</trkpt>
					<trkpt lat="44.113070" lon="7.291070">
						<ele>1528</ele>
						<time>2026-08-31T12:33:15Z</time>
					</trkpt>
					<trkpt lat="44.113040" lon="7.291220">
						<ele>1528</ele>
						<time>2026-08-31T12:33:30Z</time>
					</trkpt>
					<trkpt lat="44.112920" lon="7.291660">
						<ele>1529</ele>
						<time>2026-08-31T12:34:15Z</time>
					</trkpt>
					<trkpt lat="44.112900" lon="7.291840">
						<ele>1530</ele>
						<time>2026-08-31T12:34:33Z</time>
					</trkpt>
					<trkpt lat="44.112930" lon="7.291990">
						<ele>1529</ele>
						<time>2026-08-31T12:34:48Z</time>
					</trkpt>
					<trkpt lat="44.113010" lon="7.292130">
						<ele>1526</ele>
						<time>2026-08-31T12:35:05Z</time>
					</trkpt>
					<trkpt lat="44.113100" lon="7.292220">
						<ele>1524</ele>
						<time>2026-08-31T12:35:20Z</time>
					</trkpt>
					<trkpt lat="44.113120" lon="7.291970">
						<ele>1524</ele>
						<time>2026-08-31T12:35:44Z</time>
					</trkpt>
					<trkpt lat="44.113160" lon="7.291730">
						<ele>1523</ele>
						<time>2026-08-31T12:36:07Z</time>
					</trkpt>
					<trkpt lat="44.113350" lon="7.291090">
						<ele>1519</ele>
						<time>2026-08-31T12:37:14Z</time>
					</trkpt>
					<trkpt lat="44.113410" lon="7.290590">
						<ele>1520</ele>
						<time>2026-08-31T12:38:02Z</time>
					</trkpt>
					<trkpt lat="44.113470" lon="7.290410">
						<ele>1519</ele>
						<time>2026-08-31T12:38:21Z</time>
					</trkpt>
					</trkseg>
				</trk>
			</gpx>